No Warnings, Watches, or Advisories

Active alerts


No alerts

Amazon Weather

Hours of Daylight

12 hrs 53 min 12 sec
of Daylight Today
53.7% Day 46.3% Night Which is
2 min 42 sec Longer
Than Yesterday

South Webcam more information South Webcam


NorthWest Webcam more information NorthWest Webcam


You find our weather info also at:

UK Metoffice

Weather Underground

Mid-Atlantic Weather Network

WeatherlinkIP

Citizen Weather Observer Program (CWOP)

HAMweather, WeatherForYou, PWS Weather



Nearby METAR Reports

   
KDUJ - Du Bois, Pennsylvania, USA
Distance from station: NNE 16 mi
Updated: Apr 4 2020 3:53 am
Clear  
Clear  
   Wind: NW 3.5 mph
Wind: NW 3.5 mph
Temperature: 39.2°F
Wind Chill: 37.4°F
Dew Point: 33.8°F
Humidity: 81%
Barometer: 29.97 inHg
Clouds: Clear
Visibility: 10 mi
Cloud details: Clear
KDUJ 040753Z AUTO 31003KT 10SM CLR 04/01 A2997 RMK AO2 SLP152 T00390011
KIDI - Indiana/Stewart, Pennsylvania, USA
Distance from station: SSW 23 mi
Updated: Apr 4 2020 4:15 am
Clear  
Clear  
   Wind: Calm
Wind: Calm
Temperature: 39.2°F
Dew Point: 33.8°F
Humidity: 81%
Barometer: 30.02 inHg
Clouds: Clear
Visibility: 10 mi
Cloud details: Clear
KIDI 040815Z AUTO 00000KT 10SM CLR 04/01 A3002 RMK A01
KFIG - Clearfield, Pennsylvania, USA
Distance from station: ENE 31 mi
Updated: Apr 4 2020 4:02 am
Overcast  
Overcast  
   Wind: Calm
Wind: Calm
Temperature: 42.8°F
Dew Point: 33.8°F
Humidity: 71%
Barometer: 29.98 inHg
Clouds: Overcast
Visibility: 10 mi
Cloud details: Overcast 2800 ft
KFIG 040802Z AUTO 00000KT 10SM OVC028 06/01 A2998 RMK AO2 T00560011
KJST - Johnstown, Pennsylvania, USA
Distance from station: S 44 mi
Updated: Apr 4 2020 3:54 am
Overcast  
Overcast  
   Wind: North 4.6 mph
Wind: North 4.6 mph
Temperature: 39.2°F
Wind Chill: 35.6°F
Dew Point: 32°F
Humidity: 75%
Barometer: 29.95 inHg
Clouds: Overcast
Visibility: 10 mi
Cloud details: Overcast 2500 ft
KJST 040754Z AUTO 35004KT 10SM OVC025 04/00 A2995 RMK AO2 SLP149 T00440000
KPIT - Pittsburgh, Pennsylvania, USA
Distance from station: WSW 74 mi
Updated: Apr 4 2020 3:51 am
Few Clouds  
Few Clouds  
   Wind: West 4.6 mph
Wind: West 4.6 mph
Temperature: 37.4°F
Wind Chill: 33.8°F
Dew Point: 30.2°F
Humidity: 75%
Barometer: 30 inHg
Clouds: Few Clouds
Visibility: 10 mi
Cloud details: Few Clouds 15000 ft
KPIT 040751Z 28004KT 10SM FEW150 03/M01 A3000 RMK AO2 SLP167 T00331011
KLBE - Latrobe/Westmorl, Pennsylvania, USA
Distance from station: SSW 52 mi
Updated: Apr 4 2020 4:15 am
Clear  
Clear  
   Wind: SW 4.6 mph
Wind: SW 4.6 mph
Temperature: 33.8°F
Wind Chill: 30.2°F
Dew Point: 32°F
Humidity: 93%
Barometer: 30 inHg
Clouds: Clear
Visibility: 10 mi
Cloud details: Clear
KLBE 040815Z AUTO 22004KT 10SM CLR 01/M00 A3000 RMK AO2
KBTP - Butler Co., Pennsylvania, USA
Distance from station: WSW 52 mi
Updated: Apr 4 2020 3:56 am
Clear  
Clear  
   Wind: SW 3.5 mph
Wind: SW 3.5 mph
Temperature: 37.4°F
Wind Chill: 35.6°F
Dew Point: 32°F
Humidity: 81%
Barometer: 30 inHg
Clouds: Clear
Visibility: 10 mi
Cloud details: Clear
KBTP 040756Z AUTO 23003KT 10SM CLR 03/00 A3000 RMK AO2 SLP169 T00280000
KUCP - New Castle Muni, Pennsylvania, USA
Distance from station: W 75 mi
Updated: Apr 4 2020 3:56 am
Clear  
Clear  
   Wind: Calm
Wind: Calm
Temperature: 33.8°F
Dew Point: 30.2°F
Humidity: 87%
Barometer: 30.02 inHg
Clouds: Clear
Visibility: 10 mi
Cloud details: Clear
KUCP 040756Z AUTO 00000KT 10SM CLR 01/M01 A3002 RMK AO2 SLP188 T00061006 PNO $
KFKL - Franklin, Pennsylvania, USA
Distance from station: WNW 54 mi
Updated: Apr 4 2020 3:56 am
Overcast  
Overcast  
   Wind: Calm
Wind: Calm
Temperature: 41°F
Dew Point: 33.8°F
Humidity: 76%
Barometer: 30 inHg
Clouds: Overcast
Visibility: 10 mi
Cloud details: Mostly Cloudy 2300 ft,
Overcast 2800 ft
KFKL 040756Z AUTO 00000KT 10SM BKN023 OVC028 05/01 A3000 RMK AO2 SLP164 T00500011
KAOO - Altoona, Pennsylvania, USA
Distance from station: SE 57 mi
Updated: Apr 4 2020 4:15 am
  
  
   Wind: Calm
Wind: Calm
Temperature: 44.6°F
Dew Point: 33.8°F
Humidity: 66%
Barometer: 29.96 inHg
KAOO 040815Z AUTO 07/01 A2996 RMK AO2 T00720006 $
KUNV - State College, Pennsylvania, USA
Distance from station: E 61 mi
Updated: Apr 4 2020 4:16 am
Drizzle, Overcast  
Drizzle, Overcast  
   Wind: North 3.5 mph
Wind: North 3.5 mph
Temperature: 41°F
Wind Chill: 39.2°F
Dew Point: 39.2°F
Humidity: 93%
Barometer: 29.97 inHg
Clouds: Overcast
Visibility: 10 mi
Cloud details: Overcast 2000 ft
KUNV 040816Z AUTO 35003KT 10SM DZ OVC020 05/04 A2997 RMK AO2 T00530035
KBFD - Bradford, Pennsylvania, USA
Distance from station: NNE 62 mi
Updated: Apr 4 2020 3:53 am
Overcast  
Overcast  
   Wind: NNW 5.8 mph
Wind: NNW 5.8 mph
Temperature: 37.4°F
Wind Chill: 33.8°F
Dew Point: 33.8°F
Humidity: 87%
Barometer: 29.96 inHg
Clouds: Overcast
Visibility: 10 mi
Cloud details: Mostly Cloudy 900 ft,
Overcast 1200 ft
KBFD 040753Z AUTO 33005KT 10SM BKN009 OVC012 03/01 A2996 RMK AO2 SLP154 T00330011

Script developed by  Saratoga-weather.org Adapted for the template by  Weerstation Leuven

Equipment we use:

Weather-station
Davis VP2

Weather-program
Cumulus

Weather-server
Dell Latitude e5450

Provider
Host On A Rope

Davis VP2

Cumulus

Dell Latitude e5450

Host On A Rope